Airfield :







YOU CAN JOIN US ON...

 
LOGIN :

Register | Disclaimer

   EN    FR    IT 

 









Legend :    VFR   Marginal VFR   IFR   Intensive IFR   Very Intensive IFR
Visi :
Ceiling :
>= 8 km
>= 3000ft
5 to 8 km
1000 to 3000 ft
1500m to 5 km
500 to 1000 ft
800 to 1500m
200 to 500 ft
< 800m
< 200 ft
Symbols :   Thunderstorms  Fog  Heavy snow  Heavy precipitations  Wind > 20 kt







- Airport Elevation : 117 ft
- IATA code : KUS


BGKK - Kulusuk

CURRENT METAR :
  • 161350Z VRB02KT 9999 SKC 04/M11 Q1018

EXPIRED METARs :
  • 161250Z 04004KT 350V070 9999 SKC 04/M09 Q1017
  • 161150Z 36004KT 9999 SKC 03/M11 Q1017

TAF TAF BGKK
Valid from the 16 at 12:00 until the 16 at 19:00 UTC


161124Z 1612/1619 VRB08KT 9999 FEW200
No reported NOTAMs for that airfield.



MET'MAP, your aeronautical weather chart ! - Copyright ORBIFLY December 2007 - Disclaimer

ORBIFLY MET'MAP TEAM :

Programming & Development : Alexandra Zaïnal
Concept & Development : Baudouin d'Aumeries
Co-Development & Prog : Marc-Olivier Méhu
Technical & hardware support : Manuel Goepfert

Contact : metmap@orbifly.com




SOURCES & CREDITS :

   NOAA